Time;durP1;ratioP1;P1;durP2;ratioP2;P2;SDS_P1;SDS_P2;PMS_P1;PMS_P2;Temp;Humidity;BMP_temperature;BMP_pressure;BME280_temperature;BME280_humidity;BME280_pressure;Samples;Min_cycle;Max_cycle;Signal;HPM_P1;HPM_P2
2021/10/22 00:01:45;;;;;;;21.23;1.70;;;;;;;;;;5047412;28;20368;-85
2021/10/22 00:04:13;;;;;;;24.63;1.98;;;;;;;;;;5048165;28;20045;-85
2021/10/22 00:06:43;;;;;;;15.45;1.90;;;;;;;;;;5049483;28;20037;-85
2021/10/22 00:09:14;;;;;;;14.70;2.05;;;;;;;;;;5050550;28;20045;-85
2021/10/22 00:11:44;;;;;;;15.75;2.65;;;;;;;;;;5045098;28;20064;-86
2021/10/22 00:14:13;;;;;;;13.10;2.13;;;;;;;;;;5042518;28;20077;-85
2021/10/22 00:16:43;;;;;;;9.55;1.63;;;;;;;;;;5044001;28;20057;-85
2021/10/22 00:19:17;;;;;;;11.27;1.40;;;;;;;;;;5036211;28;20084;-85
2021/10/22 00:22:23;;;;;;;9.80;1.58;;;;;;;;;;5023911;28;20315;-86
2021/10/22 00:24:50;;;;;;;14.93;1.77;;;;;;;;;;5022607;28;20418;-85
2021/10/22 00:27:21;;;;;;;18.05;1.90;;;;;;;;;;5021852;28;20203;-86
2021/10/22 00:29:58;;;;;;;6.40;1.20;;;;;;;;;;5024658;28;20085;-86
2021/10/22 00:32:36;;;;;;;8.02;1.10;;;;;;;;;;5022214;28;20075;-86
2021/10/22 00:35:20;;;;;;;9.43;1.45;;;;;;;;;;5021815;28;20325;-86
2021/10/22 00:37:50;;;;;;;10.30;1.15;;;;;;;;;;5021373;28;20050;-86
2021/10/22 00:40:21;;;;;;;14.48;1.50;;;;;;;;;;5005452;28;20058;-85
2021/10/22 00:42:55;;;;;;;9.13;1.27;;;;;;;;;;5005170;28;20483;-85
2021/10/22 00:45:28;;;;;;;8.65;1.30;;;;;;;;;;5024737;28;20045;-85
2021/10/22 00:48:02;;;;;;;10.13;1.35;;;;;;;;;;5052395;28;20050;-85
2021/10/22 00:50:40;;;;;;;11.75;1.52;;;;;;;;;;5056969;28;20049;-85
2021/10/22 00:53:16;;;;;;;16.60;2.88;;;;;;;;;;5042198;28;20290;-85
2021/10/22 00:58:40;;;;;;;11.45;2.25;;;;;;;;;;5052867;28;20044;-85
2021/10/22 01:01:09;;;;;;;15.15;1.90;;;;;;;;;;5050196;28;20053;-85
2021/10/22 01:03:43;;;;;;;7.18;1.10;;;;;;;;;;5023812;28;20072;-85
2021/10/22 01:06:25;;;;;;;9.70;1.88;;;;;;;;;;5040490;28;20053;-85
2021/10/22 01:09:04;;;;;;;11.18;1.45;;;;;;;;;;5025116;28;20045;-85
2021/10/22 01:11:49;;;;;;;12.68;1.77;;;;;;;;;;5025429;28;20410;-85
2021/10/22 01:14:25;;;;;;;12.75;1.23;;;;;;;;;;5024824;28;20046;-85
2021/10/22 01:17:03;;;;;;;6.63;1.80;;;;;;;;;;5026322;28;20049;-85
2021/10/22 01:19:39;;;;;;;12.98;1.95;;;;;;;;;;5040811;28;20072;-85
2021/10/22 01:22:14;;;;;;;15.88;1.45;;;;;;;;;;5021100;28;20049;-85
2021/10/22 01:24:41;;;;;;;11.32;1.30;;;;;;;;;;5006100;28;20123;-85
2021/10/22 01:27:30;;;;;;;7.35;1.33;;;;;;;;;;5025736;28;20053;-85
2021/10/22 01:30:13;;;;;;;11.52;1.52;;;;;;;;;;5041539;28;20053;-84
2021/10/22 01:32:50;;;;;;;13.10;1.52;;;;;;;;;;5023475;28;20437;-85
2021/10/22 01:35:17;;;;;;;8.18;1.65;;;;;;;;;;5023251;28;20329;-85
2021/10/22 01:37:52;;;;;;;14.93;1.63;;;;;;;;;;5006566;28;20053;-85
2021/10/22 01:40:25;;;;;;;13.63;2.42;;;;;;;;;;5022431;28;20060;-85
2021/10/22 01:42:56;;;;;;;6.75;1.15;;;;;;;;;;5021509;28;20080;-85
2021/10/22 01:45:51;;;;;;;6.68;1.27;;;;;;;;;;5021455;28;20096;-85
2021/10/22 01:48:23;;;;;;;16.42;1.88;;;;;;;;;;5023281;28;20050;-85
2021/10/22 01:50:56;;;;;;;8.50;1.17;;;;;;;;;;5020385;28;20488;-85
2021/10/22 01:53:32;;;;;;;13.45;1.30;;;;;;;;;;5036560;28;20087;-87
2021/10/22 01:56:04;;;;;;;8.80;1.30;;;;;;;;;;5021123;28;20060;-86
2021/10/22 01:58:48;;;;;;;18.65;2.38;;;;;;;;;;5020355;28;20042;-85
2021/10/22 02:01:24;;;;;;;8.52;1.88;;;;;;;;;;5034217;28;20053;-87
2021/10/22 02:04:00;;;;;;;7.70;1.70;;;;;;;;;;5021086;28;20050;-85
2021/10/22 02:06:34;;;;;;;11.60;1.35;;;;;;;;;;5020977;28;20596;-85
2021/10/22 02:09:10;;;;;;;13.65;1.55;;;;;;;;;;5022851;28;20065;-86
2021/10/22 02:11:54;;;;;;;10.98;1.58;;;;;;;;;;5023763;28;20054;-84
2021/10/22 02:14:28;;;;;;;9.48;1.45;;;;;;;;;;5022631;28;20077;-87
2021/10/22 02:17:03;;;;;;;8.98;1.48;;;;;;;;;;5007555;28;20049;-87
2021/10/22 02:19:52;;;;;;;16.30;1.25;;;;;;;;;;5024866;28;20057;-87
2021/10/22 02:22:35;;;;;;;10.73;1.88;;;;;;;;;;5023120;28;20050;-86
2021/10/22 02:25:30;;;;;;;15.93;1.60;;;;;;;;;;5008969;28;20074;-86
2021/10/22 02:28:22;;;;;;;13.85;1.98;;;;;;;;;;5000443;28;20065;-87
2021/10/22 02:31:15;;;;;;;;;;;;;;;;;;;;;
2021/10/22 02:33:55;;;;;;;14.00;1.52;;;;;;;;;;5032198;28;20049;-85
2021/10/22 02:36:31;;;;;;;14.90;2.13;;;;;;;;;;5010703;28;20452;-85
2021/10/22 02:39:33;;;;;;;15.52;1.52;;;;;;;;;;4984853;28;20043;-85
2021/10/22 02:42:22;;;;;;;;;;;;;;;;;;;;;
2021/10/22 02:45:09;;;;;;;8.55;1.35;;;;;;;;;;5005643;28;20109;-85
2021/10/22 02:47:51;;;;;;;11.88;1.60;;;;;;;;;;5010818;28;20105;-85
2021/10/22 02:50:38;;;;;;;11.82;2.13;;;;;;;;;;5016055;28;20034;-85
2021/10/22 02:53:44;;;;;;;13.50;1.58;;;;;;;;;;5003164;28;20113;-85
2021/10/22 02:56:25;;;;;;;9.13;1.52;;;;;;;;;;5004875;28;20050;-85
2021/10/22 03:00:17;;;;;;;;;;;;;;;;;;;;;
2021/10/22 03:03:00;;;;;;;;;;;;;;;;;;;;;
2021/10/22 03:05:59;;;;;;;;;;;;;;;;;;;;;
2021/10/22 03:08:47;;;;;;;14.15;1.92;;;;;;;;;;4999685;28;20057;-86
2021/10/22 03:14:58;;;;;;;;;;;;;;;;;;;;;
2021/10/22 03:17:49;;;;;;;12.25;1.50;;;;;;;;;;5004282;28;20076;-85
2021/10/22 03:20:47;;;;;;;17.10;1.83;;;;;;;;;;5023348;28;20411;-85
2021/10/22 03:23:37;;;;;;;16.58;1.90;;;;;;;;;;5021277;28;20041;-85
2021/10/22 03:26:39;;;;;;;11.93;1.83;;;;;;;;;;5022266;28;20060;-86
2021/10/22 03:33:09;;;;;;;;;;;;;;;;;;;;;
2021/10/22 03:39:18;;;;;;;9.82;1.63;;;;;;;;;;5038985;28;20046;-86
2021/10/22 03:42:34;;;;;;;;;;;;;;;;;;;;;
2021/10/22 03:45:38;;;;;;;14.02;1.83;;;;;;;;;;5043398;28;20045;-87
2021/10/22 03:52:41;;;;;;;;;;;;;;;;;;;;;
2021/10/22 03:55:30;;;;;;;19.13;2.35;;;;;;;;;;5032306;28;20045;-87
2021/10/22 04:01:52;;;;;;;18.17;2.30;;;;;;;;;;4883799;29;20041;-86
2021/10/22 04:04:32;;;;;;;18.20;2.33;;;;;;;;;;4940542;29;20043;-86
2021/10/22 04:07:02;;;;;;;9.55;2.40;;;;;;;;;;4923192;29;20062;-86
2021/10/22 04:09:55;;;;;;;14.40;2.13;;;;;;;;;;4924202;29;20087;-86
2021/10/22 04:12:46;;;;;;;14.00;1.70;;;;;;;;;;4940853;29;20379;-85
2021/10/22 04:15:13;;;;;;;14.98;2.35;;;;;;;;;;4958230;28;20106;-85
2021/10/22 04:18:06;;;;;;;13.15;2.30;;;;;;;;;;4925868;29;20063;-86
2021/10/22 04:23:56;;;;;;;11.23;1.83;;;;;;;;;;4938316;29;20150;-85
2021/10/22 04:26:45;;;;;;;13.50;1.73;;;;;;;;;;4909307;29;20059;-86
2021/10/22 04:29:28;;;;;;;14.15;1.45;;;;;;;;;;4933641;29;20052;-85
2021/10/22 04:32:05;;;;;;;16.85;2.08;;;;;;;;;;4940778;29;20051;-85
2021/10/22 04:34:35;;;;;;;14.55;1.80;;;;;;;;;;4957374;28;20506;-85
2021/10/22 04:37:24;;;;;;;11.45;1.63;;;;;;;;;;4958605;28;20107;-85
2021/10/22 04:40:35;;;;;;;5.72;1.45;;;;;;;;;;5002812;28;20046;-85
2021/10/22 04:43:16;;;;;;;8.30;1.60;;;;;;;;;;5003511;28;20046;-85
2021/10/22 04:45:53;;;;;;;16.35;2.13;;;;;;;;;;5003098;28;20093;-86
2021/10/22 04:48:20;;;;;;;18.30;3.15;;;;;;;;;;5004552;28;20057;-85
2021/10/22 04:50:51;;;;;;;9.63;1.85;;;;;;;;;;5033562;28;20056;-85
2021/10/22 04:53:19;;;;;;;17.02;2.05;;;;;;;;;;5021244;28;20045;-85
2021/10/22 04:55:55;;;;;;;14.85;2.05;;;;;;;;;;5036490;28;20072;-85
2021/10/22 04:58:47;;;;;;;9.75;1.77;;;;;;;;;;5019162;28;20257;-85
2021/10/22 05:04:14;;;;;;;11.03;1.80;;;;;;;;;;5025471;28;20411;-86
2021/10/22 05:06:49;;;;;;;16.05;2.00;;;;;;;;;;5023385;28;20084;-84
2021/10/22 05:09:16;;;;;;;17.42;2.08;;;;;;;;;;5024590;28;20042;-84
2021/10/22 05:11:43;;;;;;;9.15;1.90;;;;;;;;;;5039747;28;20073;-84
2021/10/22 05:14:12;;;;;;;12.93;2.00;;;;;;;;;;5038456;28;20103;-84
2021/10/22 05:16:53;;;;;;;16.20;2.25;;;;;;;;;;5018364;28;20053;-84
2021/10/22 05:19:20;;;;;;;7.30;1.80;;;;;;;;;;5018337;28;20060;-85
2021/10/22 05:21:49;;;;;;;11.90;2.25;;;;;;;;;;5018667;28;20135;-85
2021/10/22 05:24:23;;;;;;;11.05;2.00;;;;;;;;;;5013486;28;20148;-85
2021/10/22 05:26:53;;;;;;;12.20;2.55;;;;;;;;;;4997416;28;20104;-85
2021/10/22 05:29:28;;;;;;;8.30;1.70;;;;;;;;;;5014685;28;20049;-84
2021/10/22 05:31:56;;;;;;;15.90;1.83;;;;;;;;;;4998985;28;20053;-84
2021/10/22 05:34:26;;;;;;;9.35;2.05;;;;;;;;;;5016259;28;20084;-84
2021/10/22 05:36:58;;;;;;;18.48;2.53;;;;;;;;;;4999581;28;20200;-84
2021/10/22 05:39:51;;;;;;;12.18;2.55;;;;;;;;;;4996519;28;20049;-84
2021/10/22 05:42:18;;;;;;;8.52;1.73;;;;;;;;;;4995554;28;20053;-84
2021/10/22 05:44:45;;;;;;;11.40;1.70;;;;;;;;;;4995932;28;20057;-84
2021/10/22 05:47:25;;;;;;;11.85;1.83;;;;;;;;;;5006900;28;20050;-84
2021/10/22 05:49:55;;;;;;;10.68;2.10;;;;;;;;;;5012635;28;20049;-84
2021/10/22 05:52:22;;;;;;;14.20;1.13;;;;;;;;;;5008838;28;20468;-84
2021/10/22 05:54:49;;;;;;;16.92;1.70;;;;;;;;;;5036391;28;20270;-84
2021/10/22 05:57:19;;;;;;;13.00;2.05;;;;;;;;;;5035494;28;20046;-84
2021/10/22 05:59:46;;;;;;;9.63;1.73;;;;;;;;;;5015958;28;20314;-84
2021/10/22 06:02:17;;;;;;;9.88;1.73;;;;;;;;;;5025696;28;20046;-85
2021/10/22 06:04:45;;;;;;;7.35;1.92;;;;;;;;;;5019034;28;20045;-84
2021/10/22 06:07:19;;;;;;;11.27;1.50;;;;;;;;;;5034729;28;20244;-84
2021/10/22 06:09:49;;;;;;;16.02;2.00;;;;;;;;;;4998041;28;20046;-84
2021/10/22 06:12:22;;;;;;;11.65;1.70;;;;;;;;;;5017668;28;20045;-83
2021/10/22 06:14:52;;;;;;;17.83;2.30;;;;;;;;;;5036476;28;20198;-83
2021/10/22 06:17:21;;;;;;;13.35;1.83;;;;;;;;;;5018414;28;20234;-85
2021/10/22 06:19:48;;;;;;;5.75;1.50;;;;;;;;;;5015139;28;20281;-84
2021/10/22 06:22:40;;;;;;;16.27;1.80;;;;;;;;;;5006632;28;20048;-84
2021/10/22 06:25:06;;;;;;;15.98;2.28;;;;;;;;;;5055432;28;20106;-84
2021/10/22 06:27:42;;;;;;;9.40;1.65;;;;;;;;;;5038116;28;20248;-83
2021/10/22 06:30:17;;;;;;;11.43;2.28;;;;;;;;;;5022567;28;20356;-83
2021/10/22 06:32:57;;;;;;;19.45;2.45;;;;;;;;;;5021748;28;20092;-83
2021/10/22 06:35:29;;;;;;;11.15;2.25;;;;;;;;;;5018412;28;20110;-84
2021/10/22 06:37:57;;;;;;;12.02;1.83;;;;;;;;;;5031525;28;20058;-84
2021/10/22 06:40:23;;;;;;;10.10;1.65;;;;;;;;;;5014598;28;20050;-83
2021/10/22 06:42:56;;;;;;;10.45;2.20;;;;;;;;;;5041353;28;20060;-84
2021/10/22 06:45:42;;;;;;;8.05;1.65;;;;;;;;;;5041103;28;20238;-84
2021/10/22 06:48:11;;;;;;;18.88;2.17;;;;;;;;;;5015140;28;20042;-84
2021/10/22 06:50:38;;;;;;;11.55;1.88;;;;;;;;;;5014673;28;20041;-84
2021/10/22 06:53:08;;;;;;;16.38;2.15;;;;;;;;;;5014984;28;20046;-84
2021/10/22 06:55:38;;;;;;;13.20;1.88;;;;;;;;;;5016591;28;20105;-84
2021/10/22 06:58:05;;;;;;;12.13;2.17;;;;;;;;;;5015109;28;20056;-84
2021/10/22 07:00:50;;;;;;;17.08;1.92;;;;;;;;;;5014801;28;20149;-83
2021/10/22 07:03:26;;;;;;;14.88;2.50;;;;;;;;;;5021672;28;20053;-84
2021/10/22 07:07:14;;;;;;;15.27;2.05;;;;;;;;;;5018902;28;20235;-84
2021/10/22 07:08:51;;;;;;;9.52;1.70;;;;;;;;;;5034181;28;20112;-83
2021/10/22 07:11:18;;;;;;;17.75;2.20;;;;;;;;;;5016346;28;20284;-84
2021/10/22 07:13:59;;;;;;;8.85;2.40;;;;;;;;;;5013863;28;20084;-84
2021/10/22 07:16:27;;;;;;;8.52;2.03;;;;;;;;;;4996444;28;20157;-83
2021/10/22 07:19:00;;;;;;;9.80;1.63;;;;;;;;;;4999092;28;20046;-83
2021/10/22 07:21:29;;;;;;;14.30;1.90;;;;;;;;;;5030179;28;20077;-83
2021/10/22 07:23:59;;;;;;;11.80;2.10;;;;;;;;;;5028491;28;20303;-84
2021/10/22 07:26:28;;;;;;;14.55;2.00;;;;;;;;;;5035285;28;20053;-83
2021/10/22 07:28:57;;;;;;;19.60;2.70;;;;;;;;;;5016974;28;20092;-83
2021/10/22 07:31:27;;;;;;;11.13;2.30;;;;;;;;;;5033598;28;20053;-83
2021/10/22 07:33:55;;;;;;;10.20;1.65;;;;;;;;;;5001787;28;20258;-83
2021/10/22 07:36:23;;;;;;;15.05;2.38;;;;;;;;;;5021380;28;20057;-82
2021/10/22 07:39:04;;;;;;;10.18;1.90;;;;;;;;;;5036411;28;20100;-83
2021/10/22 07:41:35;;;;;;;10.85;1.80;;;;;;;;;;5034217;28;20045;-82
2021/10/22 07:44:02;;;;;;;9.80;1.90;;;;;;;;;;5016037;28;20107;-83
2021/10/22 07:46:29;;;;;;;21.83;2.67;;;;;;;;;;5033272;28;20053;-83
2021/10/22 07:49:02;;;;;;;5.90;1.52;;;;;;;;;;5047581;28;20240;-82
2021/10/22 07:51:30;;;;;;;13.48;1.77;;;;;;;;;;5014643;28;20076;-82
2021/10/22 07:53:59;;;;;;;13.50;2.38;;;;;;;;;;5014787;28;20059;-82
2021/10/22 07:56:25;;;;;;;12.43;2.20;;;;;;;;;;5015857;28;20465;-83
2021/10/22 07:58:53;;;;;;;10.02;1.95;;;;;;;;;;5033285;28;20060;-82
2021/10/22 08:01:43;;;;;;;9.60;2.85;;;;;;;;;;5033160;28;20143;-82
2021/10/22 08:04:10;;;;;;;16.75;2.17;;;;;;;;;;5032021;28;20109;-83
2021/10/22 08:06:41;;;;;;;10.55;1.95;;;;;;;;;;5027252;28;20104;-83
2021/10/22 08:09:07;;;;;;;16.38;3.28;;;;;;;;;;5012662;28;20115;-83
2021/10/22 08:11:35;;;;;;;14.63;2.75;;;;;;;;;;5027698;28;20251;-82
2021/10/22 08:14:03;;;;;;;14.68;1.75;;;;;;;;;;5027065;28;20271;-81
2021/10/22 08:16:33;;;;;;;10.02;1.83;;;;;;;;;;5032148;28;20117;-82
2021/10/22 08:19:00;;;;;;;13.73;2.08;;;;;;;;;;5010993;28;20345;-82
2021/10/22 08:24:12;;;;;;;11.10;2.63;;;;;;;;;;5026694;28;20409;-82
2021/10/22 08:26:39;;;;;;;12.07;1.92;;;;;;;;;;5011154;28;20095;-82
2021/10/22 08:29:22;;;;;;;13.82;2.15;;;;;;;;;;5010161;28;20351;-82
2021/10/22 08:31:52;;;;;;;13.77;2.78;;;;;;;;;;5010934;28;20450;-82
2021/10/22 08:34:19;;;;;;;9.90;1.90;;;;;;;;;;5009987;28;20107;-81
2021/10/22 08:36:48;;;;;;;11.27;2.38;;;;;;;;;;5008560;28;20127;-82
2021/10/22 08:39:18;;;;;;;11.65;2.10;;;;;;;;;;5009703;28;20262;-84
2021/10/22 08:41:46;;;;;;;12.55;2.17;;;;;;;;;;5011160;28;20203;-82
2021/10/22 08:44:14;;;;;;;13.55;2.75;;;;;;;;;;4989432;28;20261;-83
2021/10/22 08:46:42;;;;;;;14.32;2.22;;;;;;;;;;4970998;28;20043;-83
2021/10/22 08:49:10;;;;;;;12.05;1.90;;;;;;;;;;4987877;28;20054;-83
2021/10/22 08:51:41;;;;;;;16.98;2.30;;;;;;;;;;4988669;28;20231;-83
2021/10/22 08:54:13;;;;;;;27.58;2.20;;;;;;;;;;4986397;28;20058;-83
2021/10/22 08:56:43;;;;;;;17.73;2.33;;;;;;;;;;4986642;28;20217;-83
2021/10/22 08:59:11;;;;;;;18.77;2.25;;;;;;;;;;4992399;28;20202;-82
2021/10/22 09:02:01;;;;;;;14.40;2.67;;;;;;;;;;5005718;28;20057;-82
2021/10/22 09:04:32;;;;;;;11.75;1.98;;;;;;;;;;5008177;28;20045;-82
2021/10/22 09:07:02;;;;;;;11.27;2.35;;;;;;;;;;5009515;28;20058;-83
2021/10/22 09:09:40;;;;;;;15.98;2.45;;;;;;;;;;4989551;28;20055;-83
2021/10/22 09:12:16;;;;;;;14.57;1.75;;;;;;;;;;4989415;28;20054;-83
2021/10/22 09:15:05;;;;;;;17.08;3.13;;;;;;;;;;4993441;28;20042;-82
2021/10/22 09:17:33;;;;;;;17.08;2.30;;;;;;;;;;5010032;28;20406;-82
2021/10/22 09:20:02;;;;;;;11.82;1.63;;;;;;;;;;5010430;28;20045;-82
2021/10/22 09:22:45;;;;;;;10.10;2.25;;;;;;;;;;5010144;28;20398;-81
2021/10/22 09:25:16;;;;;;;12.20;1.63;;;;;;;;;;5011550;28;20145;-81
2021/10/22 09:27:42;;;;;;;12.82;1.88;;;;;;;;;;5010573;28;20105;-81
2021/10/22 09:30:29;;;;;;;8.05;1.80;;;;;;;;;;5012347;28;20084;-81
2021/10/22 09:33:11;;;;;;;13.27;2.25;;;;;;;;;;5012596;28;20073;-82
2021/10/22 09:35:48;;;;;;;11.18;1.42;;;;;;;;;;5020073;28;20191;-83
2021/10/22 09:38:20;;;;;;;17.05;2.10;;;;;;;;;;5005544;28;20077;-83
2021/10/22 09:40:50;;;;;;;13.57;1.73;;;;;;;;;;4995559;28;20046;-83
2021/10/22 09:43:19;;;;;;;12.15;1.77;;;;;;;;;;4993451;28;20232;-84
2021/10/22 09:45:53;;;;;;;10.80;2.13;;;;;;;;;;4991181;28;20073;-85
2021/10/22 09:48:22;;;;;;;13.68;2.78;;;;;;;;;;4992445;28;20235;-85
2021/10/22 09:50:56;;;;;;;8.73;1.98;;;;;;;;;;4994942;28;20046;-85
2021/10/22 09:53:35;;;;;;;10.60;2.17;;;;;;;;;;4991715;28;20042;-85
2021/10/22 09:56:08;;;;;;;17.77;2.45;;;;;;;;;;4991519;28;20050;-85
2021/10/22 09:58:39;;;;;;;12.07;2.25;;;;;;;;;;4990626;28;20190;-85
2021/10/22 10:01:12;;;;;;;13.68;2.45;;;;;;;;;;4990215;28;20089;-85
2021/10/22 10:03:40;;;;;;;13.05;1.83;;;;;;;;;;4995690;28;20055;-85
2021/10/22 10:06:13;;;;;;;12.82;2.38;;;;;;;;;;4974600;28;20065;-84
2021/10/22 10:08:43;;;;;;;14.60;2.10;;;;;;;;;;4976879;28;20309;-86
2021/10/22 10:11:29;;;;;;;14.57;2.25;;;;;;;;;;4980426;28;20046;-87
2021/10/22 10:14:14;;;;;;;9.15;2.15;;;;;;;;;;4996085;28;20059;-85
2021/10/22 10:16:52;;;;;;;14.18;2.10;;;;;;;;;;4995049;28;20117;-87
2021/10/22 10:19:29;;;;;;;11.30;2.25;;;;;;;;;;4995575;28;20046;-87
2021/10/22 10:22:10;;;;;;;13.15;2.65;;;;;;;;;;4998463;28;20087;-86
2021/10/22 10:24:51;;;;;;;19.30;3.38;;;;;;;;;;5001289;28;20051;-87
2021/10/22 10:27:20;;;;;;;15.82;2.40;;;;;;;;;;5007626;28;20412;-86
2021/10/22 10:29:58;;;;;;;16.65;3.22;;;;;;;;;;5007266;28;20054;-87
2021/10/22 10:32:29;;;;;;;17.25;2.50;;;;;;;;;;5006295;28;20050;-86
2021/10/22 10:35:03;;;;;;;16.88;2.35;;;;;;;;;;5005309;28;20458;-86
2021/10/22 10:37:47;;;;;;;13.20;1.80;;;;;;;;;;5023078;28;20124;-86
2021/10/22 10:40:27;;;;;;;7.93;1.23;;;;;;;;;;5029048;28;20088;-87
2021/10/22 10:46:33;;;;;;;18.35;1.73;;;;;;;;;;5011822;28;20020;-88
2021/10/22 10:49:30;;;;;;;3.22;0.70;;;;;;;;;;5027200;28;20054;-87
2021/10/22 10:52:02;;;;;;;6.60;1.00;;;;;;;;;;5001902;28;20122;-87
2021/10/22 10:54:50;;;;;;;77.07;3.33;;;;;;;;;;5012534;28;20054;-87
2021/10/22 10:57:32;;;;;;;13.18;1.30;;;;;;;;;;4996469;28;20309;-88
2021/10/22 11:00:13;;;;;;;7.13;0.85;;;;;;;;;;5008373;28;20050;-88
2021/10/22 11:03:02;;;;;;;3.63;1.10;;;;;;;;;;5024999;28;20100;-88
2021/10/22 11:08:39;;;;;;;14.93;1.48;;;;;;;;;;5025380;28;20049;-89
2021/10/22 11:11:14;;;;;;;15.77;0.80;;;;;;;;;;5022634;28;20057;-90
2021/10/22 11:14:34;;;;;;;;;;;;;;;;;;;;;
2021/10/22 11:17:24;;;;;;;5.93;0.90;;;;;;;;;;4941203;29;20052;-88
2021/10/22 11:20:26;;;;;;;6.97;1.05;;;;;;;;;;4922996;29;20055;-86
2021/10/22 11:22:57;;;;;;;4.85;0.80;;;;;;;;;;4911868;29;20047;-87
2021/10/22 11:26:02;;;;;;;5.47;1.10;;;;;;;;;;4918264;29;20073;-87
2021/10/22 11:28:50;;;;;;;11.00;1.35;;;;;;;;;;4900910;29;20371;-87
2021/10/22 11:31:41;;;;;;;8.07;0.93;;;;;;;;;;4945119;28;20296;-87
2021/10/22 11:34:34;;;;;;;6.45;1.23;;;;;;;;;;5012481;28;20054;-90
2021/10/22 11:37:22;;;;;;;16.02;1.65;;;;;;;;;;5014003;28;20072;-89
2021/10/22 11:40:05;;;;;;;6.65;1.48;;;;;;;;;;5000215;28;20351;-88
2021/10/22 11:43:13;;;;;;;10.88;1.60;;;;;;;;;;5013620;28;20039;-87
2021/10/22 11:45:53;;;;;;;5.63;0.85;;;;;;;;;;5015477;28;20042;-86
2021/10/22 11:48:55;;;;;;;10.25;1.33;;;;;;;;;;5013312;28;20046;-86
2021/10/22 11:51:29;;;;;;;6.38;1.35;;;;;;;;;;4999100;28;20456;-88
2021/10/22 11:54:10;;;;;;;7.35;1.10;;;;;;;;;;5005551;28;20445;-88
2021/10/22 11:56:51;;;;;;;5.50;0.98;;;;;;;;;;5016370;28;20052;-90
2021/10/22 11:59:23;;;;;;;6.70;1.17;;;;;;;;;;5018162;28;20265;-90
2021/10/22 12:02:10;;;;;;;5.50;1.00;;;;;;;;;;5034964;28;20514;-90
2021/10/22 12:08:02;;;;;;;6.03;1.23;;;;;;;;;;5020110;28;20411;-89
2021/10/22 12:10:59;;;;;;;4.25;0.60;;;;;;;;;;5017998;28;20243;-89
2021/10/22 12:13:46;;;;;;;7.43;1.20;;;;;;;;;;5016585;28;20119;-87
2021/10/22 12:16:33;;;;;;;6.18;0.98;;;;;;;;;;5001575;28;20045;-87
2021/10/22 12:19:03;;;;;;;6.03;1.17;;;;;;;;;;5022593;28;20046;-87
2021/10/22 12:21:53;;;;;;;5.00;0.98;;;;;;;;;;5013490;28;20056;-88
2021/10/22 12:24:51;;;;;;;10.50;1.00;;;;;;;;;;5013655;28;20053;-88
2021/10/22 12:28:18;;;;;;;3.58;0.70;;;;;;;;;;4977249;28;20546;-87
2021/10/22 12:52:19;;;;;;;7.07;1.30;;;;;;;;;;4854225;29;20287;-85
2021/10/22 12:55:10;;;;;;;6.50;1.13;;;;;;;;;;4916852;29;20060;-86
2021/10/22 13:02:11;;;;;;;10.52;1.20;;;;;;;;;;4841349;29;20335;-87
2021/10/22 13:05:13;;;;;;;9.48;1.42;;;;;;;;;;4797186;29;20509;-87
2021/10/22 13:08:39;;;;;;;8.05;1.25;;;;;;;;;;4828073;29;20403;-87
2021/10/22 13:11:37;;;;;;;7.22;0.98;;;;;;;;;;4833287;29;20052;-86
2021/10/22 13:14:21;;;;;;;9.60;0.88;;;;;;;;;;4876584;29;20313;-87
2021/10/22 13:22:47;;;;;;;17.38;2.28;;;;;;;;;;4958666;28;20054;-85
2021/10/22 13:25:31;;;;;;;9.93;1.15;;;;;;;;;;4920777;28;20110;-85
2021/10/22 13:27:59;;;;;;;8.90;0.95;;;;;;;;;;4933048;29;20043;-86
2021/10/22 13:30:54;;;;;;;3.83;0.90;;;;;;;;;;4935305;28;20092;-86
2021/10/22 13:33:56;;;;;;;12.45;1.63;;;;;;;;;;4949790;28;20055;-85
2021/10/22 13:36:48;;;;;;;12.67;1.37;;;;;;;;;;5004404;28;20063;-85
2021/10/22 13:39:26;;;;;;;11.50;1.65;;;;;;;;;;5030415;28;20053;-86
2021/10/22 13:41:54;;;;;;;11.77;1.80;;;;;;;;;;5006935;28;20544;-86
2021/10/22 13:44:23;;;;;;;13.20;1.25;;;;;;;;;;4996221;28;20046;-86
2021/10/22 13:46:54;;;;;;;13.68;1.77;;;;;;;;;;5023627;28;20096;-85
2021/10/22 13:49:26;;;;;;;12.60;1.70;;;;;;;;;;5022962;28;20217;-85
2021/10/22 13:51:56;;;;;;;12.30;1.92;;;;;;;;;;5004378;28;20057;-85
2021/10/22 13:54:33;;;;;;;8.73;1.58;;;;;;;;;;5011182;28;20064;-86
2021/10/22 13:57:02;;;;;;;15.85;1.45;;;;;;;;;;5009568;28;20124;-84
2021/10/22 13:59:29;;;;;;;8.85;1.20;;;;;;;;;;5010394;28;20178;-85
2021/10/22 14:02:00;;;;;;;7.47;1.15;;;;;;;;;;5013104;28;20115;-85
2021/10/22 14:04:31;;;;;;;13.85;1.65;;;;;;;;;;5011001;28;20444;-85
2021/10/22 14:07:03;;;;;;;8.75;1.17;;;;;;;;;;5025885;28;20468;-84
2021/10/22 14:09:32;;;;;;;12.85;1.20;;;;;;;;;;4976165;28;20053;-85
2021/10/22 14:12:08;;;;;;;10.63;1.75;;;;;;;;;;5025635;28;20045;-84
2021/10/22 14:14:47;;;;;;;12.23;1.70;;;;;;;;;;5016281;28;20117;-84
2021/10/22 14:17:33;;;;;;;18.58;1.60;;;;;;;;;;5015325;28;20096;-84
2021/10/22 14:30:49;;;;;;;15.60;1.75;;;;;;;;;;5033232;28;20441;-84
2021/10/22 14:33:17;;;;;;;14.35;1.48;;;;;;;;;;5011713;28;20081;-84
2021/10/22 14:35:45;;;;;;;14.32;1.98;;;;;;;;;;5028604;28;20111;-84
2021/10/22 14:38:13;;;;;;;9.52;1.63;;;;;;;;;;4996720;28;20321;-84
2021/10/22 14:40:42;;;;;;;7.72;1.10;;;;;;;;;;5011736;28;20072;-84
2021/10/22 14:43:28;;;;;;;11.63;2.03;;;;;;;;;;5016833;28;20273;-84
2021/10/22 14:48:56;;;;;;;14.23;1.40;;;;;;;;;;5034698;28;20068;-83
2021/10/22 14:52:16;;;;;;;11.00;1.20;;;;;;;;;;5051293;28;20136;-85
2021/10/22 14:54:18;;;;;;;9.52;1.10;;;;;;;;;;5015626;28;20042;-84
2021/10/22 14:56:44;;;;;;;19.75;1.35;;;;;;;;;;5029727;28;20084;-84
2021/10/22 14:59:11;;;;;;;12.65;1.67;;;;;;;;;;5029651;28;20251;-84
2021/10/22 15:01:39;;;;;;;9.43;1.33;;;;;;;;;;5044657;28;20468;-84
2021/10/22 15:04:06;;;;;;;22.95;1.42;;;;;;;;;;5013719;28;20049;-86
2021/10/22 15:06:44;;;;;;;10.05;1.63;;;;;;;;;;5029519;28;20152;-86
2021/10/22 15:09:14;;;;;;;10.38;1.25;;;;;;;;;;5046052;28;20060;-87
2021/10/22 15:11:48;;;;;;;9.00;1.00;;;;;;;;;;5031001;28;20075;-87
2021/10/22 15:14:16;;;;;;;9.10;1.27;;;;;;;;;;5017577;28;20264;-88
2021/10/22 15:16:44;;;;;;;9.10;1.08;;;;;;;;;;5013315;28;20065;-88
2021/10/22 15:19:18;;;;;;;8.38;1.10;;;;;;;;;;5015730;28;20071;-87
2021/10/22 15:21:49;;;;;;;15.25;1.55;;;;;;;;;;5015066;28;20084;-87
2021/10/22 15:24:26;;;;;;;9.05;0.90;;;;;;;;;;5019760;28;20472;-87
2021/10/22 15:26:55;;;;;;;5.38;1.13;;;;;;;;;;5017048;28;20276;-87
2021/10/22 15:29:45;;;;;;;16.90;1.48;;;;;;;;;;5031843;28;20083;-86
2021/10/22 15:32:14;;;;;;;7.70;0.90;;;;;;;;;;5012709;28;20063;-86
2021/10/22 15:34:43;;;;;;;11.27;1.30;;;;;;;;;;5040643;28;20137;-84
2021/10/22 15:37:10;;;;;;;9.77;1.20;;;;;;;;;;5052200;28;20114;-84
2021/10/22 15:39:38;;;;;;;9.98;1.45;;;;;;;;;;5050772;28;20049;-85
2021/10/22 15:42:09;;;;;;;9.68;1.30;;;;;;;;;;5013947;28;20113;-85
2021/10/22 15:44:36;;;;;;;8.10;0.93;;;;;;;;;;5032038;28;20509;-85
2021/10/22 15:47:03;;;;;;;16.83;1.50;;;;;;;;;;5017922;28;20582;-86
2021/10/22 15:49:41;;;;;;;7.95;1.60;;;;;;;;;;5022419;28;20037;-85
2021/10/22 15:52:17;;;;;;;8.45;1.20;;;;;;;;;;5028818;28;20049;-85
2021/10/22 15:54:50;;;;;;;8.88;1.80;;;;;;;;;;5030989;28;20140;-85
2021/10/22 15:57:24;;;;;;;9.30;1.58;;;;;;;;;;5036120;28;20099;-86
2021/10/22 15:59:54;;;;;;;13.15;3.40;;;;;;;;;;5015719;28;20132;-86
2021/10/22 16:02:27;;;;;;;9.25;2.53;;;;;;;;;;5034268;28;20053;-85
2021/10/22 16:05:02;;;;;;;8.00;1.33;;;;;;;;;;5034537;28;20049;-88
2021/10/22 16:07:41;;;;;;;11.05;1.88;;;;;;;;;;5018765;28;20535;-87
2021/10/22 16:10:21;;;;;;;12.10;2.15;;;;;;;;;;5031848;28;20277;-88
2021/10/22 16:13:12;;;;;;;5.35;1.30;;;;;;;;;;5036502;28;20058;-85
2021/10/22 16:18:40;;;;;;;5.43;0.65;;;;;;;;;;5032502;28;20429;-85
2021/10/22 16:21:13;;;;;;;5.53;1.10;;;;;;;;;;5014828;28;20392;-84
2021/10/22 16:23:41;;;;;;;4.78;0.90;;;;;;;;;;5011972;28;20056;-85
2021/10/22 16:26:10;;;;;;;8.70;1.75;;;;;;;;;;5014865;28;20042;-84
2021/10/22 16:28:39;;;;;;;5.63;1.23;;;;;;;;;;5015190;28;20111;-85
2021/10/22 16:31:11;;;;;;;5.63;0.75;;;;;;;;;;5032336;28;20134;-86
2021/10/22 16:36:20;;;;;;;6.85;0.80;;;;;;;;;;5030396;28;20344;-84
2021/10/22 16:38:49;;;;;;;10.30;1.45;;;;;;;;;;5017480;28;20080;-85
2021/10/22 16:41:17;;;;;;;6.55;1.30;;;;;;;;;;5010663;28;20235;-85
2021/10/22 16:44:11;;;;;;;15.50;1.70;;;;;;;;;;5012972;28;20207;-85
2021/10/22 16:46:38;;;;;;;8.65;2.13;;;;;;;;;;5033150;28;20120;-84
2021/10/22 16:49:08;;;;;;;12.20;2.22;;;;;;;;;;5016982;28;20046;-84
2021/10/22 16:51:43;;;;;;;9.90;1.25;;;;;;;;;;5032139;28;20053;-85
2021/10/22 16:54:17;;;;;;;10.23;1.13;;;;;;;;;;5013309;28;20195;-84
2021/10/22 16:56:48;;;;;;;20.55;2.00;;;;;;;;;;5015989;28;20067;-84
2021/10/22 16:59:19;;;;;;;9.25;1.90;;;;;;;;;;5015751;28;20634;-86
2021/10/22 17:01:53;;;;;;;8.10;1.40;;;;;;;;;;5029215;28;20275;-85
2021/10/22 17:04:20;;;;;;;10.00;1.75;;;;;;;;;;5017786;28;20392;-84
2021/10/22 17:07:00;;;;;;;12.18;1.73;;;;;;;;;;5018056;28;20059;-84
2021/10/22 17:09:29;;;;;;;10.73;1.48;;;;;;;;;;5013735;28;20087;-85
2021/10/22 17:12:02;;;;;;;7.78;1.85;;;;;;;;;;5030182;28;20044;-84
2021/10/22 17:14:33;;;;;;;13.52;1.75;;;;;;;;;;5035441;28;20244;-84